El Dorado, AR

6:43 AM CST on November 23, 2017 (GMT -0600)
South Arkansas Regional At Goodwin | | Change Station

Elev 276 ft 33.22 °N, 92.81 °W | Updated 50 minutes ago

Mostly Cloudy
Mostly Cloudy
30 °F
Feels Like 30 °F
N
0
Wind Variable Wind from North

Today
High -- | Low -- °F
--% Chance of Precip.
Yesterday
High -- | Low -- °F
Precip. -- in
Pressure 30.22 in
Visibility 10.0 miles
Clouds Clear
Dew Point 28 °F
Humidity 92%
Rainfall 0.00 in
Snow Depth Not available.
6:49 AM 5:05 PM
Waxing Crescent, 21% visible
METAR KELD 231153Z AUTO 00000KT 10SM CLR M01/M02 A3021 RMK AO2 SLP232 T10111022 11006 21033 55002
Pressure 30.22 in
Visibility 10.0 miles
Clouds Clear
Dew Point 28 °F
Humidity 92%
Rainfall 0.00 in
Snow Depth Not available.
6:49 AM 5:05 PM
Waxing Crescent, 21% visible
METAR KELD 231153Z AUTO 00000KT 10SM CLR M01/M02 A3021 RMK AO2 SLP232 T10111022 11006 21033 55002

Get Severe Weather Alerts

Thanks for signing up!

Be on the lookout for a verification email in your inbox.

You'll start receiving the daily forecast at 6 AM.

×

10-Day Weather Forecast

Almanac

Astronomy

Nov. 23, 2017 Rise Set
Actual Time
Civil Twilight
Nautical Twilight
Astronomical Twilight
Moon
Length of Visible Light
Length of Day
Tomorrow will be .
, % of the Moon is Illuminated

Today's Extremes

State Highs State Lows

Community

WunderPhotos

Category 6

Welcome to Category 6. This is the collective home for Weather Underground's featured writeups by Dr. Jeff Masters (right), Bob Henson (left), Chris Burt, and other regular contributors.

Nearby

Air Quality

  Air Quality AQ Index Pollutant
Not available.

Snow Depth

Station Depth Elevation

Earthquake Activity

City Distance Mag. Time & Date
Minimum magnitude displayed is 2.5.

Coastal Water Temperatures

Place Temperature

Stations

Nearby Weather Stations

Station Location Temp. Windchill Dew Point Humidity Wind Precip. Elev Updated Type
                   

Watches & Warnings

There are currently no watches in effect.